Accueil
METAR-TAF:

METAR-TAF

Aéroports :

Aéroport de Deauville-Normandie

Deauville, France

latitude: 49-21-55N, longitude: 000-09-16E, altitude: 146 m

Observation

Le bulletin a été fait il y a 15 minutes, à 02:30 UTC
Vent 4 kt de nord/nord-est
Température 3°C
Humidité 93%
Pression 1028 hPa
Visibilité: 9000 m

METAR: LFRG 170230Z AUTO 02004KT 9000 NSC 03/02 Q1028

Heure: 04:45 (02:45 UTC)

Prévision

Le bulletin a été fait il y a 12 heures et 45 minutes, à 14:00 UTC
Prévision valable du 16 à 15 UTC au 16 à 24 UTC
Vent 10 kt de nord/nord-est
Visibilité 10 km ou plus
pas de nuages en-dessous de 1500 mètres et pas de cumulonimbus.
Probabilité 30% :
Temporairement
du 16 à 15 UTC au 16 à 21 UTC
Vent 15 kt de nord/nord-est avec des rafales jusqu'à 25 kt
Evoluant progressivement
du 16 à 21 UTC au 16 à 24 UTC
Vent 4 kt de est/nord-est

TAF: LFRG 161400Z 1615/1624 03010KT CAVOK PROB30 TEMPO 1615/1621 03015G25KT BECMG 1621/1624 07004KT

Observations et prévisions météorologiques de plus de 4000 aéroports (messages METAR et TAF).

Les stations disponibles sont représentées par des disques jaunes et rouges sur la carte.

Passer la souris dessus pour voir le nom de la station.

Cliquer dessus pour voir les observations et prévisions météorologiques.

Pour changer de carte: cliquez sur les boutons verts avec une croix noire pour zoomer, sur le bouton vert avec un tiret pour effectuer un zoom arrière, ou sur les flèches vertes pour les cartes adjacentes.


METAR-TAF: